CheckWX is a tool to help pilots better visualize weather data.  It is not intended as a substitute for an official pre-flight weather briefing.

00:56:07 UTC

EDJA TAF
Memmingen Allgau Airport
Memmingen, Germany
TAF EDJA 111700Z 1118/1203 21006KT 8000 FEW004 BKN045 TEMPO 1118/1203 4000 -RADZ BKN004

Nov-11@
18:00 UTC

Nov-11 @ 18:00 UTC

Nov-12@
03:00 UTC

Nov-12 @ 03:00 UTC

TAF EDJA 111700Z 1118/1203 21006KT 8000 FEW004 BKN045
Wind
  • 210° at 6 KTS
Cloud Levels
  • Few at 400' AGL
  • Broken at 4,500' AGL

Nov-11@
18:00 UTC

Nov-11 @ 18:00 UTC

Nov-12@
03:00 UTC

Nov-12 @ 03:00 UTC

TEMPO 1118/1203 4000 -RADZ BKN004

Temporary

Temporary Changes expected for less than half the time period

Conditions
Light Rain, Light Drizzle
Cloud Levels
  • Broken at 400' AGL